TimeBST,TemperatureF,Dew PointF,Humidity,Sea Level PressureIn,VisibilityMPH,Wind Direction,Wind SpeedMPH,Gust SpeedMPH,PrecipitationIn,Events,Conditions,WindDirDegrees,DateUTC
12:20 AM,57.2,51.8,82,29.89,6.2,South,8.1,-,N/A,,Mostly Cloudy,180,2013-06-11 23:20:00
12:50 AM,57,52,76,29.90,18,South,5.8,,,,Mostly Cloudy,170,2013-06-11 23:50:00
12:50 AM,57.2,51.8,82,29.89,6.2,South,4.6,-,N/A,,Mostly Cloudy,170,2013-06-11 23:50:00
1:20 AM,57.2,53.6,88,29.89,6.2,South,4.6,-,N/A,,Mostly Cloudy,170,2013-06-12 00:20:00
1:50 AM,57.2,53.6,88,29.89,6.2,South,5.8,-,N/A,,Mostly Cloudy,170,2013-06-12 00:50:00
2:20 AM,59.0,55.4,88,29.86,6.2,South,10.4,-,N/A,,Mostly Cloudy,190,2013-06-12 01:20:00
2:50 AM,59.0,55.4,88,29.86,6.2,SSW,10.4,-,N/A,,Mostly Cloudy,200,2013-06-12 01:50:00
3:20 AM,59.0,57.2,94,29.86,5.0,SSW,11.5,-,N/A,,Overcast,200,2013-06-12 02:20:00
3:50 AM,58,57,94,29.85,10,South,10.4,,,Rain,Light Drizzle,190,2013-06-12 02:50:00
3:50 AM,59.0,57.2,94,29.86,6.2,South,10.4,-,N/A,,Mostly Cloudy,190,2013-06-12 02:50:00
4:20 AM,59.0,57.2,94,29.86,6.2,SSW,12.7,-,N/A,,Mostly Cloudy,200,2013-06-12 03:20:00
4:50 AM,59.0,57.2,94,29.83,6.2,SSW,12.7,-,N/A,,Mostly Cloudy,200,2013-06-12 03:50:00
5:20 AM,59.0,55.4,88,29.83,6.2,SSW,13.8,26.5,N/A,,Mostly Cloudy,210,2013-06-12 04:20:00
5:50 AM,59.0,55.4,88,29.83,6.2,SSW,15.0,-,N/A,,Mostly Cloudy,210,2013-06-12 04:50:00
6:20 AM,59.0,53.6,82,29.83,6.2,SW,17.3,-,N/A,,Mostly Cloudy,220,2013-06-12 05:20:00
6:50 AM,59,54,77,29.86,25,SSW,17.3,,,Rain,Light Rain Showers,210,2013-06-12 05:50:00
6:50 AM,59.0,55.4,88,29.86,6.2,SW,12.7,-,N/A,,Mostly Cloudy,220,2013-06-12 05:50:00
7:20 AM,59.0,53.6,82,29.86,6.2,SW,15.0,-,N/A,,Mostly Cloudy,220,2013-06-12 06:20:00
7:50 AM,59.0,53.6,82,29.86,6.2,SW,16.1,-,N/A,,Mostly Cloudy,230,2013-06-12 06:50:00
8:20 AM,59.0,53.6,82,29.86,6.2,SW,15.0,-,N/A,,Mostly Cloudy,230,2013-06-12 07:20:00
8:50 AM,59.0,53.6,82,29.89,6.2,SW,19.6,-,N/A,,Mostly Cloudy,230,2013-06-12 07:50:00
9:20 AM,60.8,53.6,77,29.86,6.2,SW,13.8,-,N/A,,Mostly Cloudy,230,2013-06-12 08:20:00
9:50 AM,62,53,65,29.89,22,SW,16.1,,,,Mostly Cloudy,220,2013-06-12 08:50:00
9:50 AM,62.6,53.6,72,29.89,6.2,WSW,18.4,-,N/A,,Mostly Cloudy,240,2013-06-12 08:50:00
10:20 AM,60.8,53.6,77,29.89,6.2,SW,18.4,-,N/A,,Scattered Clouds,230,2013-06-12 09:20:00
10:50 AM,62.6,53.6,72,29.89,6.2,SW,19.6,31.1,N/A,,Mostly Cloudy,220,2013-06-12 09:50:00
11:20 AM,62.6,53.6,72,29.89,6.2,SW,21.9,-,N/A,,Mostly Cloudy,230,2013-06-12 10:20:00
11:50 AM,62.6,53.6,72,29.89,6.2,SW,20.7,-,N/A,,Mostly Cloudy,230,2013-06-12 10:50:00
12:20 PM,62.6,53.6,72,29.89,6.2,SW,18.4,-,N/A,,Mostly Cloudy,220,2013-06-12 11:20:00
12:50 PM,61,54,73,29.91,6,SSW,16.1,,,Rain,Light Rain Showers,210,2013-06-12 11:50:00
12:50 PM,60.8,55.4,82,29.89,5.0,SW,17.3,32.2,N/A,Rain,Light Rain,220,2013-06-12 11:50:00
1:20 PM,60.8,55.4,82,29.92,6.2,SW,15.0,-,N/A,,Mostly Cloudy,220,2013-06-12 12:20:00
1:50 PM,62.6,55.4,77,29.89,6.2,SSW,13.8,-,N/A,,Mostly Cloudy,210,2013-06-12 12:50:00
2:20 PM,60.8,55.4,82,29.89,6.2,SW,13.8,-,N/A,,Mostly Cloudy,220,2013-06-12 13:20:00
2:50 PM,60.8,57.2,88,29.89,6.2,SSW,13.8,-,N/A,,Mostly Cloudy,210,2013-06-12 13:50:00
3:20 PM,62.6,57.2,82,29.86,6.2,SSW,13.8,-,N/A,,Mostly Cloudy,200,2013-06-12 14:20:00
3:50 PM,62,57,79,29.86,28,SSW,13.8,,,Rain,Light Rain,200,2013-06-12 14:50:00
3:50 PM,62.6,57.2,82,29.86,6.2,SSW,12.7,-,N/A,,Mostly Cloudy,200,2013-06-12 14:50:00
4:20 PM,62.6,59.0,88,29.86,6.2,SSW,13.8,-,N/A,,Mostly Cloudy,210,2013-06-12 15:20:00
4:50 PM,62.6,59.0,88,29.83,6.2,SSW,15.0,-,N/A,,Mostly Cloudy,200,2013-06-12 15:50:00
5:20 PM,62.6,59.0,88,29.83,5.0,SSW,15.0,-,N/A,Rain,Light Rain,210,2013-06-12 16:20:00
5:50 PM,62.6,59.0,88,29.83,6.2,SSW,15.0,-,N/A,Rain,Light Rain,210,2013-06-12 16:50:00
6:20 PM,62.6,59.0,88,29.83,6.2,SW,16.1,-,N/A,Rain,Light Rain,220,2013-06-12 17:20:00
6:50 PM,62,59,86,29.83,11,SSW,16.1,,,Rain,Rain Showers,210,2013-06-12 17:50:00
6:50 PM,62.6,59.0,88,29.83,6.2,SSW,15.0,-,N/A,Rain,Light Rain,210,2013-06-12 17:50:00
7:20 PM,60.8,59.0,94,29.83,6.2,SW,15.0,-,N/A,Rain,Light Rain,220,2013-06-12 18:20:00
7:50 PM,60.8,59.0,94,29.83,6.2,SW,16.1,-,N/A,Rain,Light Rain,220,2013-06-12 18:50:00
8:20 PM,60.8,59.0,94,29.83,6.2,SSW,15.0,-,N/A,,Mostly Cloudy,210,2013-06-12 19:20:00
8:50 PM,60.8,59.0,94,29.80,6.2,SSW,16.1,-,N/A,,Mostly Cloudy,210,2013-06-12 19:50:00
9:20 PM,60.8,59.0,94,29.80,6.2,SW,16.1,-,N/A,,Mostly Cloudy,220,2013-06-12 20:20:00
9:50 PM,60,57,87,29.83,18,SSW,19.6,,,Rain,Rain,210,2013-06-12 20:50:00
9:50 PM,60.8,57.2,88,29.83,6.2,SW,16.1,-,N/A,Rain,Light Rain,220,2013-06-12 20:50:00
10:20 PM,59.0,57.2,94,29.83,6.2,SW,18.4,-,N/A,,Scattered Clouds,230,2013-06-12 21:20:00
10:50 PM,59.0,55.4,88,29.83,6.2,SW,15.0,-,N/A,,Scattered Clouds,220,2013-06-12 21:50:00
11:20 PM,59.0,57.2,94,29.83,4.3,SSW,12.7,-,N/A,Rain,Light Rain,210,2013-06-12 22:20:00
11:50 PM,59.0,55.4,88,29.83,6.2,SW,15.0,-,N/A,,Scattered Clouds,220,2013-06-12 22:50:00